createdAt,value
2022-08-25T00:00:55.144Z,13.87
2022-08-25T00:02:57.962Z,13.90
2022-08-25T00:05:00.163Z,16.03
2022-08-25T00:07:04.750Z,15.97
2022-08-25T00:09:07.171Z,17.20
2022-08-25T00:11:12.289Z,15.50
2022-08-25T00:13:14.350Z,15.73
2022-08-25T00:15:16.296Z,15.60
2022-08-25T00:17:18.361Z,15.03
2022-08-25T00:19:24.768Z,14.83
2022-08-25T00:21:27.610Z,14.37
2022-08-25T00:23:29.529Z,15.10
2022-08-25T00:25:31.541Z,15.07
2022-08-25T00:27:33.515Z,14.00
2022-08-25T00:29:38.021Z,14.10
2022-08-25T00:31:40.713Z,15.20
2022-08-25T00:33:44.468Z,14.23
2022-08-25T00:35:46.505Z,15.60
2022-08-25T00:37:48.572Z,15.00
2022-08-25T00:39:50.520Z,13.97
2022-08-25T00:41:56.673Z,14.43
2022-08-25T00:44:01.300Z,14.10
2022-08-25T00:46:03.678Z,14.30
2022-08-25T00:48:05.903Z,14.10
2022-08-25T00:50:09.336Z,14.70
2022-08-25T00:52:14.552Z,15.40
2022-08-25T00:54:22.800Z,15.80
2022-08-25T00:56:26.014Z,14.37
2022-08-25T00:58:31.085Z,13.60
2022-08-25T01:00:39.465Z,13.57
2022-08-25T01:02:41.709Z,14.40
2022-08-25T01:04:49.260Z,14.83
2022-08-25T01:06:51.651Z,14.00
2022-08-25T01:08:54.668Z,14.23
2022-08-25T01:10:59.392Z,15.23
2022-08-25T01:13:16.613Z,14.80
2022-08-25T01:15:19.272Z,14.00
2022-08-25T01:17:21.959Z,12.73
2022-08-25T01:19:26.123Z,13.73
2022-08-25T01:21:29.933Z,15.07
2022-08-25T01:23:32.703Z,13.93
2022-08-25T01:25:51.589Z,14.67
2022-08-25T01:27:53.719Z,13.83
2022-08-25T01:29:56.163Z,13.87
2022-08-25T01:32:04.548Z,13.60
2022-08-25T01:34:07.886Z,15.27
2022-08-25T01:36:09.880Z,14.00
2022-08-25T01:38:11.996Z,13.90
2022-08-25T01:40:14.480Z,15.07
2022-08-25T01:43:00.227Z,16.23
2022-08-25T01:45:02.234Z,17.70
2022-08-25T01:47:05.236Z,19.97
2022-08-25T01:49:07.510Z,18.33
2022-08-25T01:51:09.717Z,18.07
2022-08-25T01:53:33.393Z,21.20
2022-08-25T01:55:51.742Z,19.97
2022-08-25T01:57:53.808Z,21.50
2022-08-25T01:59:55.758Z,19.00
2022-08-25T02:02:00.071Z,18.67
2022-08-25T02:04:02.484Z,21.20
2022-08-25T02:06:06.014Z,20.37
2022-08-25T02:08:07.999Z,20.57
2022-08-25T02:10:12.861Z,20.57
2022-08-25T02:12:15.500Z,21.13
2022-08-25T02:14:19.911Z,21.53
2022-08-25T02:16:28.838Z,19.67
2022-08-25T02:18:30.982Z,19.30
2022-08-25T02:20:32.927Z,18.37
2022-08-25T02:22:35.007Z,18.87
2022-08-25T02:24:37.164Z,18.40
2022-08-25T02:26:39.276Z,18.30
2022-08-25T02:28:41.269Z,16.40
2022-08-25T02:30:43.477Z,18.63
2022-08-25T02:32:45.570Z,17.93
2022-08-25T02:34:48.677Z,17.87
2022-08-25T02:36:50.894Z,16.83
2022-08-25T02:38:52.956Z,17.27
2022-08-25T02:40:56.276Z,16.10
2022-08-25T02:42:58.455Z,17.40
2022-08-25T02:45:00.487Z,16.97
2022-08-25T02:47:03.142Z,16.77
2022-08-25T02:49:06.302Z,16.60
2022-08-25T02:51:09.428Z,14.70
2022-08-25T02:53:11.424Z,16.73
2022-08-25T02:55:15.018Z,15.80
2022-08-25T02:57:18.093Z,14.70
2022-08-25T02:59:21.032Z,15.60
2022-08-25T03:01:28.871Z,14.60
2022-08-25T03:03:31.443Z,13.90
2022-08-25T03:05:33.720Z,13.53
2022-08-25T03:07:38.111Z,14.53
2022-08-25T03:09:40.099Z,12.93
2022-08-25T03:11:42.195Z,14.43
2022-08-25T03:13:44.448Z,15.13
2022-08-25T03:15:46.455Z,13.87
2022-08-25T03:17:51.538Z,14.40
2022-08-25T03:19:53.694Z,13.13
2022-08-25T03:21:57.042Z,14.70
2022-08-25T03:23:59.153Z,13.70
2022-08-25T03:26:19.665Z,13.97
2022-08-25T03:28:24.940Z,13.20
2022-08-25T03:30:32.196Z,15.07
2022-08-25T03:32:34.262Z,14.97
2022-08-25T03:34:36.411Z,13.13
2022-08-25T03:36:38.697Z,13.87
2022-08-25T03:38:41.419Z,14.00
2022-08-25T03:40:43.534Z,13.20
2022-08-25T03:42:45.893Z,13.37
2022-08-25T03:44:48.305Z,13.83
2022-08-25T03:46:52.009Z,15.10
2022-08-25T03:48:54.233Z,14.10
2022-08-25T03:50:56.252Z,14.40
2022-08-25T03:52:58.308Z,13.47
2022-08-25T03:55:00.809Z,13.57
2022-08-25T03:57:04.032Z,13.67
2022-08-25T03:59:09.158Z,13.50
2022-08-25T04:01:11.458Z,13.37
2022-08-25T04:03:13.512Z,13.47
2022-08-25T04:05:15.911Z,12.87
2022-08-25T04:07:18.034Z,12.87
2022-08-25T04:09:20.195Z,13.20
2022-08-25T04:11:23.388Z,12.63
2022-08-25T04:13:25.408Z,13.07
2022-08-25T04:15:30.270Z,14.30
2022-08-25T04:17:32.461Z,12.50
2022-08-25T04:19:35.752Z,13.43
2022-08-25T04:21:39.014Z,12.40
2022-08-25T04:23:42.953Z,11.97
2022-08-25T04:25:46.133Z,13.30
2022-08-25T04:27:48.403Z,12.77
2022-08-25T04:29:50.361Z,13.07
2022-08-25T04:31:53.867Z,13.00
2022-08-25T04:33:56.214Z,13.33
2022-08-25T04:35:59.114Z,13.83
2022-08-25T04:38:01.074Z,13.87
2022-08-25T04:40:03.975Z,12.60
2022-08-25T04:42:06.239Z,13.40
2022-08-25T04:44:08.412Z,13.97
2022-08-25T04:46:13.390Z,12.87
2022-08-25T04:48:22.478Z,13.33
2022-08-25T04:50:25.566Z,13.30
2022-08-25T04:52:27.585Z,13.30
2022-08-25T04:54:29.554Z,12.40
2022-08-25T04:56:42.581Z,13.00
2022-08-25T04:58:47.149Z,13.70
2022-08-25T05:00:49.132Z,12.33
2022-08-25T05:02:51.138Z,11.97
2022-08-25T05:04:55.416Z,13.50
2022-08-25T05:06:57.552Z,13.00
2022-08-25T05:09:01.664Z,13.90
2022-08-25T05:11:09.451Z,13.07
2022-08-25T05:13:12.175Z,13.90
2022-08-25T05:15:32.367Z,13.47
2022-08-25T05:17:36.263Z,12.67
2022-08-25T05:19:38.266Z,13.70
2022-08-25T05:21:41.096Z,14.23
2022-08-25T05:23:43.311Z,14.33
2022-08-25T05:25:45.279Z,15.27
2022-08-25T05:27:47.314Z,15.43
2022-08-25T05:29:49.355Z,15.77
2022-08-25T05:31:51.489Z,14.87
2022-08-25T05:33:54.495Z,15.20
2022-08-25T05:35:56.514Z,15.60
2022-08-25T05:37:58.464Z,14.70
2022-08-25T05:40:01.124Z,16.20
2022-08-25T05:42:03.312Z,17.90
2022-08-25T05:44:05.725Z,15.80
2022-08-25T05:46:08.480Z,16.13
2022-08-25T05:48:10.550Z,15.87
2022-08-25T05:50:12.567Z,16.50
2022-08-25T05:52:18.139Z,17.20
2022-08-25T05:54:22.258Z,16.30
2022-08-25T05:56:24.212Z,17.00
2022-08-25T05:58:30.185Z,17.83
2022-08-25T06:00:32.218Z,17.53
2022-08-25T06:02:48.307Z,16.47
2022-08-25T06:04:50.377Z,18.23
2022-08-25T06:06:54.778Z,15.73
2022-08-25T06:08:56.804Z,13.93
2022-08-25T06:10:58.797Z,14.77
2022-08-25T06:13:00.950Z,14.10
2022-08-25T06:15:04.791Z,13.60
2022-08-25T06:17:06.851Z,12.53
2022-08-25T06:19:10.290Z,13.00
2022-08-25T06:21:14.539Z,12.37
2022-08-25T06:23:19.172Z,12.00
2022-08-25T06:25:23.131Z,12.20
2022-08-25T06:27:25.140Z,13.23
2022-08-25T06:29:27.196Z,12.70
2022-08-25T06:31:29.380Z,13.13
2022-08-25T06:33:31.678Z,12.57
2022-08-25T06:35:33.744Z,13.00
2022-08-25T06:37:37.347Z,12.73
2022-08-25T06:39:39.427Z,11.87
2022-08-25T06:41:41.388Z,11.97
2022-08-25T06:43:48.152Z,11.07
2022-08-25T06:45:51.107Z,11.23
2022-08-25T06:47:54.660Z,10.50
2022-08-25T06:49:56.702Z,9.50
2022-08-25T06:51:58.894Z,12.37
2022-08-25T06:54:00.882Z,10.77
2022-08-25T06:56:06.475Z,11.73
2022-08-25T06:58:10.325Z,10.83
2022-08-25T07:00:13.533Z,10.83
2022-08-25T07:02:16.181Z,11.80
2022-08-25T07:04:25.506Z,10.07
2022-08-25T07:06:31.628Z,11.70
2022-08-25T07:08:34.551Z,9.93
2022-08-25T07:10:36.695Z,10.13
2022-08-25T07:12:39.543Z,10.47
2022-08-25T07:14:44.262Z,10.80
2022-08-25T07:16:55.743Z,10.00
2022-08-25T07:18:59.113Z,9.67
2022-08-25T07:21:02.284Z,10.07
2022-08-25T07:23:07.156Z,11.00
2022-08-25T07:25:11.085Z,11.00
2022-08-25T07:27:13.119Z,10.20
2022-08-25T07:29:32.419Z,9.70
2022-08-25T07:31:35.199Z,10.03
2022-08-25T07:33:37.429Z,9.77
2022-08-25T07:35:39.693Z,9.93
2022-08-25T07:37:51.148Z,9.57
2022-08-25T07:39:53.630Z,9.50
2022-08-25T07:41:55.825Z,10.67
2022-08-25T07:43:57.845Z,9.90
2022-08-25T07:46:00.336Z,9.53
2022-08-25T07:48:11.739Z,10.20
2022-08-25T07:50:15.315Z,9.80
2022-08-25T07:52:17.286Z,9.33
2022-08-25T07:54:19.447Z,10.27
2022-08-25T07:56:21.448Z,9.17
2022-08-25T07:58:23.404Z,9.20
2022-08-25T08:00:30.942Z,10.53
2022-08-25T08:02:32.910Z,9.63
2022-08-25T08:04:37.089Z,9.80
2022-08-25T08:06:39.378Z,9.50
2022-08-25T08:08:45.428Z,9.50
2022-08-25T08:11:03.198Z,10.20
2022-08-25T08:13:08.252Z,9.70
2022-08-25T08:15:10.801Z,8.60
2022-08-25T08:17:13.711Z,9.77
2022-08-25T08:19:18.887Z,9.43
2022-08-25T08:21:28.189Z,9.63
2022-08-25T08:23:30.552Z,8.60
2022-08-25T08:25:32.713Z,9.30
2022-08-25T08:27:35.054Z,10.10
2022-08-25T08:29:39.255Z,9.50
2022-08-25T08:31:41.267Z,8.73
2022-08-25T08:33:51.413Z,8.50
2022-08-25T08:36:05.080Z,9.07
2022-08-25T08:38:14.721Z,9.43
2022-08-25T08:40:20.001Z,9.40
2022-08-25T08:42:47.080Z,10.23
2022-08-25T08:45:11.604Z,11.20
2022-08-25T08:47:17.189Z,10.93
2022-08-25T08:49:30.433Z,9.40
2022-08-25T08:51:44.465Z,9.37
2022-08-25T08:53:55.633Z,9.40
2022-08-25T08:56:02.492Z,9.93
2022-08-25T08:58:10.222Z,10.70
2022-08-25T09:00:12.948Z,8.60
2022-08-25T09:02:39.581Z,9.70
2022-08-25T09:04:49.519Z,10.53
2022-08-25T09:06:52.110Z,9.30
2022-08-25T09:08:55.808Z,8.33
2022-08-25T09:11:42.022Z,9.50
2022-08-25T09:14:07.481Z,9.27
2022-08-25T09:16:37.734Z,8.83
2022-08-25T09:18:51.040Z,8.33
2022-08-25T09:21:05.968Z,8.53
2022-08-25T09:23:12.004Z,8.70
2022-08-25T09:25:22.125Z,9.70
2022-08-25T09:28:11.760Z,8.43
2022-08-25T09:30:22.242Z,9.00
2022-08-25T09:33:02.012Z,9.23
2022-08-25T09:35:05.072Z,8.47
2022-08-25T09:37:07.053Z,8.37
2022-08-25T09:39:10.109Z,8.37
2022-08-25T09:41:16.835Z,8.67
2022-08-25T09:43:23.186Z,8.03
2022-08-25T09:45:46.213Z,9.20
2022-08-25T09:47:48.562Z,8.97
2022-08-25T09:49:57.340Z,9.60
2022-08-25T09:52:19.134Z,7.93
2022-08-25T09:54:34.085Z,9.00
2022-08-25T09:56:55.870Z,8.70
2022-08-25T09:59:19.991Z,8.20
2022-08-25T10:01:23.516Z,8.23
2022-08-25T10:03:25.611Z,8.70
2022-08-25T10:05:28.155Z,8.10
2022-08-25T10:07:35.709Z,8.30
2022-08-25T10:09:42.725Z,9.43
2022-08-25T10:11:48.482Z,9.40
2022-08-25T10:14:05.724Z,9.37
2022-08-25T10:16:20.160Z,8.10
2022-08-25T10:18:26.212Z,9.00
2022-08-25T10:20:30.898Z,8.13
2022-08-25T10:22:39.091Z,9.93
2022-08-25T10:24:43.925Z,8.00
2022-08-25T10:26:49.008Z,9.47
2022-08-25T10:29:12.143Z,8.83
2022-08-25T10:31:23.744Z,8.57
2022-08-25T10:33:43.106Z,8.80
2022-08-25T10:36:00.764Z,8.30
2022-08-25T10:38:37.074Z,8.90
2022-08-25T10:41:29.860Z,7.50
2022-08-25T10:43:41.069Z,8.37
2022-08-25T10:45:48.418Z,8.97
2022-08-25T10:48:13.150Z,9.53
2022-08-25T10:50:15.269Z,9.83
2022-08-25T10:52:36.847Z,7.97
2022-08-25T10:54:48.403Z,8.73
2022-08-25T10:57:15.290Z,8.40
2022-08-25T10:59:24.338Z,9.10
2022-08-25T11:01:44.109Z,8.90
2022-08-25T11:03:59.881Z,8.80
2022-08-25T11:06:07.903Z,7.63
2022-08-25T11:08:19.940Z,7.73
2022-08-25T11:10:38.197Z,8.70
2022-08-25T11:12:46.416Z,7.53
2022-08-25T11:14:53.546Z,8.17
2022-08-25T11:17:02.157Z,9.03
2022-08-25T11:19:11.474Z,7.33
2022-08-25T11:21:19.384Z,7.70
2022-08-25T11:23:34.165Z,8.70
2022-08-25T11:25:49.617Z,8.93
2022-08-25T11:28:07.108Z,9.80
2022-08-25T11:30:12.344Z,8.90
2022-08-25T11:32:15.331Z,8.80
2022-08-25T11:34:19.545Z,9.30
2022-08-25T11:36:32.297Z,8.50
2022-08-25T11:38:40.462Z,8.60
2022-08-25T11:41:02.123Z,8.20
2022-08-25T11:43:31.596Z,8.33
2022-08-25T11:45:54.098Z,9.03
2022-08-25T11:48:29.654Z,8.47
2022-08-25T11:50:37.252Z,8.60
2022-08-25T11:52:46.889Z,8.63
2022-08-25T11:54:49.445Z,8.10
2022-08-25T11:56:59.581Z,7.90
2022-08-25T11:59:01.865Z,8.80
2022-08-25T12:01:05.757Z,9.17
2022-08-25T12:03:32.926Z,9.57
2022-08-25T12:05:35.072Z,8.43
2022-08-25T12:08:12.518Z,7.57
2022-08-25T12:10:25.728Z,8.50
2022-08-25T12:12:29.725Z,8.70
2022-08-25T12:14:32.474Z,8.77
2022-08-25T12:16:35.573Z,9.17
2022-08-25T12:18:45.752Z,9.00
2022-08-25T12:20:57.031Z,8.60
2022-08-25T12:23:00.145Z,8.97
2022-08-25T12:25:24.060Z,8.50
2022-08-25T12:27:36.498Z,9.87
2022-08-25T12:29:49.141Z,9.30
2022-08-25T12:32:36.729Z,8.47
2022-08-25T12:35:04.052Z,7.83
2022-08-25T12:37:13.984Z,9.17
2022-08-25T12:39:24.424Z,8.10
2022-08-25T12:41:30.857Z,9.00
2022-08-25T12:43:37.612Z,8.20
2022-08-25T12:45:46.116Z,9.37
2022-08-25T12:47:49.610Z,8.30
2022-08-25T12:49:51.955Z,8.77
2022-08-25T12:51:57.377Z,8.80
2022-08-25T12:54:52.707Z,9.10
2022-08-25T12:57:00.117Z,8.20
2022-08-25T12:59:16.718Z,8.20
2022-08-25T13:01:35.408Z,7.87
2022-08-25T13:04:09.513Z,9.10
2022-08-25T13:06:21.884Z,8.90
2022-08-25T13:09:08.293Z,8.03
2022-08-25T13:11:20.394Z,9.13
2022-08-25T13:13:31.707Z,8.80
2022-08-25T13:15:37.819Z,7.83
2022-08-25T13:17:39.950Z,9.20
2022-08-25T13:19:42.068Z,8.23
2022-08-25T13:21:45.070Z,8.10
2022-08-25T13:23:53.924Z,8.47
2022-08-25T13:25:58.344Z,7.80
2022-08-25T13:28:04.322Z,8.70
2022-08-25T13:30:06.859Z,9.13
2022-08-25T13:32:14.426Z,7.60
2022-08-25T13:34:22.952Z,7.93
2022-08-25T13:37:03.008Z,8.40
2022-08-25T13:39:19.898Z,8.33
2022-08-25T13:41:35.866Z,7.27
2022-08-25T13:43:39.682Z,7.80
2022-08-25T13:45:47.574Z,8.03
2022-08-25T13:47:55.819Z,7.70
2022-08-25T13:50:20.701Z,8.27
2022-08-25T13:52:29.303Z,7.33
2022-08-25T13:54:31.507Z,7.77
2022-08-25T13:56:41.142Z,7.80
2022-08-25T13:58:46.752Z,7.53
2022-08-25T14:01:00.649Z,8.30
2022-08-25T14:03:12.601Z,8.53
2022-08-25T14:05:38.561Z,8.23
2022-08-25T14:07:46.560Z,7.70
2022-08-25T14:10:00.198Z,7.80
2022-08-25T14:12:03.174Z,9.60
2022-08-25T14:14:12.493Z,7.50
2022-08-25T14:16:15.644Z,7.93
2022-08-25T14:18:19.870Z,7.30
2022-08-25T14:20:28.786Z,6.90
2022-08-25T14:22:31.203Z,8.30
2022-08-25T14:24:40.713Z,7.40
2022-08-25T14:26:54.671Z,8.10
2022-08-25T14:28:57.546Z,7.57
2022-08-25T14:31:08.365Z,7.73
2022-08-25T14:33:11.079Z,8.23
2022-08-25T14:35:13.317Z,7.93
2022-08-25T14:37:20.463Z,7.30
2022-08-25T14:39:28.113Z,8.07
2022-08-25T14:41:30.269Z,7.77
2022-08-25T14:43:32.841Z,7.97
2022-08-25T14:45:40.538Z,7.70
2022-08-25T14:47:43.666Z,7.40
2022-08-25T14:49:47.965Z,7.47
2022-08-25T14:51:50.533Z,7.77
2022-08-25T14:53:54.867Z,8.20
2022-08-25T14:55:58.848Z,7.63
2022-08-25T14:58:01.496Z,7.13
2022-08-25T15:00:08.988Z,7.83
2022-08-25T15:02:14.254Z,7.60
2022-08-25T15:04:20.094Z,7.90
2022-08-25T15:06:22.307Z,7.10
2022-08-25T15:08:43.164Z,7.40
2022-08-25T15:10:45.358Z,8.23
2022-08-25T15:12:48.199Z,7.83
2022-08-25T15:14:56.287Z,7.73
2022-08-25T15:16:58.481Z,7.90
2022-08-25T15:19:01.467Z,6.83
2022-08-25T15:21:08.607Z,7.67
2022-08-25T15:23:10.749Z,7.43
2022-08-25T15:25:12.957Z,7.80
2022-08-25T15:27:15.490Z,8.63
2022-08-25T15:29:18.429Z,7.63
2022-08-25T15:31:21.470Z,7.67
2022-08-25T15:33:23.864Z,6.80
2022-08-25T15:35:27.677Z,7.90
2022-08-25T15:37:31.404Z,8.57
2022-08-25T15:39:33.611Z,8.10
2022-08-25T15:41:36.925Z,7.53
2022-08-25T15:43:40.582Z,7.43
2022-08-25T15:45:42.829Z,8.83
2022-08-25T15:47:45.339Z,8.00
2022-08-25T15:49:47.512Z,8.30
2022-08-25T15:51:49.810Z,8.53
2022-08-25T15:53:52.142Z,7.47
2022-08-25T15:55:54.774Z,7.67
2022-08-25T15:57:56.878Z,8.43
2022-08-25T15:59:59.481Z,8.83
2022-08-25T16:02:02.220Z,8.23
2022-08-25T16:04:06.691Z,7.40
2022-08-25T16:06:09.286Z,8.30
2022-08-25T16:08:19.326Z,7.73
2022-08-25T16:10:22.198Z,8.23
2022-08-25T16:12:25.531Z,8.40
2022-08-25T16:14:30.075Z,8.37
2022-08-25T16:16:40.234Z,8.17
2022-08-25T16:18:43.990Z,9.30
2022-08-25T16:20:50.134Z,8.60
2022-08-25T16:22:52.839Z,7.77
2022-08-25T16:24:57.044Z,8.23
2022-08-25T16:27:11.403Z,7.50
2022-08-25T16:29:14.891Z,8.03
2022-08-25T16:31:18.916Z,9.10
2022-08-25T16:33:24.833Z,7.40
2022-08-25T16:35:28.140Z,7.93
2022-08-25T16:37:33.528Z,8.63
2022-08-25T16:39:36.259Z,7.90
2022-08-25T16:41:43.508Z,7.80
2022-08-25T16:43:48.830Z,8.68
2022-08-25T16:46:02.636Z,8.20
2022-08-25T16:48:06.197Z,7.77
2022-08-25T16:50:11.371Z,8.47
2022-08-25T16:52:32.557Z,8.43
2022-08-25T16:54:53.065Z,8.73
2022-08-25T16:56:55.746Z,8.17
2022-08-25T16:59:02.128Z,7.80
2022-08-25T17:01:10.052Z,8.00
2022-08-25T17:03:13.100Z,8.40
2022-08-25T17:05:15.228Z,8.40
2022-08-25T17:07:23.645Z,8.60
2022-08-25T17:09:26.217Z,9.30
2022-08-25T17:11:30.547Z,8.10
2022-08-25T17:13:34.199Z,8.20
2022-08-25T17:15:41.048Z,8.27
2022-08-25T17:17:43.607Z,8.57
2022-08-25T17:19:46.864Z,8.37
2022-08-25T17:21:54.544Z,8.40
2022-08-25T17:23:57.933Z,8.10
2022-08-25T17:26:01.620Z,8.17
2022-08-25T17:28:05.838Z,9.10
2022-08-25T17:30:09.674Z,8.10
2022-08-25T17:32:11.734Z,8.50
2022-08-25T17:34:20.328Z,8.40
2022-08-25T17:36:26.936Z,9.40
2022-08-25T17:38:30.199Z,8.97
2022-08-25T17:40:35.973Z,8.60
2022-08-25T17:42:38.169Z,7.90
2022-08-25T17:44:42.563Z,9.23
2022-08-25T17:47:06.666Z,9.23
2022-08-25T17:49:10.595Z,8.77
2022-08-25T17:51:15.911Z,8.70
2022-08-25T17:53:19.163Z,8.90
2022-08-25T17:55:23.255Z,9.33
2022-08-25T17:57:25.974Z,9.20
2022-08-25T17:59:32.455Z,9.40
2022-08-25T18:01:40.418Z,9.37
2022-08-25T18:03:44.311Z,9.83
2022-08-25T18:05:49.567Z,8.43
2022-08-25T18:07:52.197Z,9.37
2022-08-25T18:09:54.310Z,8.93
2022-08-25T18:11:57.390Z,9.67
2022-08-25T18:13:59.944Z,9.13
2022-08-25T18:16:02.126Z,9.03
2022-08-25T18:18:05.845Z,8.83
2022-08-25T18:20:10.368Z,8.87
2022-08-25T18:22:12.536Z,7.90
2022-08-25T18:24:14.732Z,9.20
2022-08-25T18:26:21.855Z,9.10
2022-08-25T18:28:28.376Z,8.47
2022-08-25T18:30:30.587Z,9.60
2022-08-25T18:32:34.451Z,10.17
2022-08-25T18:34:38.568Z,9.17
2022-08-25T18:36:41.807Z,8.83
2022-08-25T18:39:11.437Z,9.50
2022-08-25T18:41:16.401Z,8.80
2022-08-25T18:43:19.600Z,8.30
2022-08-25T18:45:24.763Z,8.80
2022-08-25T18:47:28.380Z,9.57
2022-08-25T18:49:30.476Z,8.60
2022-08-25T18:51:33.353Z,8.80
2022-08-25T18:53:37.332Z,8.80
2022-08-25T18:55:54.671Z,8.77
2022-08-25T18:57:58.074Z,8.90
2022-08-25T19:00:06.360Z,8.97
2022-08-25T19:02:10.621Z,9.20
2022-08-25T19:04:15.675Z,8.90
2022-08-25T19:06:20.730Z,8.37
2022-08-25T19:08:23.629Z,8.60
2022-08-25T19:10:28.185Z,9.17
2022-08-25T19:12:30.980Z,9.23
2022-08-25T19:14:33.811Z,9.00
2022-08-25T19:16:40.592Z,8.33
2022-08-25T19:18:44.334Z,8.43
2022-08-25T19:20:50.173Z,8.70
2022-08-25T19:22:55.078Z,8.73
2022-08-25T19:24:57.154Z,9.80
2022-08-25T19:27:02.471Z,8.33
2022-08-25T19:29:09.107Z,9.23
2022-08-25T19:31:11.554Z,9.00
2022-08-25T19:33:14.186Z,9.03
2022-08-25T19:35:45.515Z,8.53
2022-08-25T19:37:50.003Z,8.70
2022-08-25T19:39:57.433Z,8.43
2022-08-25T19:42:00.226Z,8.70
2022-08-25T19:44:07.158Z,9.47
2022-08-25T19:46:10.386Z,10.47
2022-08-25T19:48:13.722Z,10.20
2022-08-25T19:50:18.083Z,9.10
2022-08-25T19:52:26.735Z,9.23
2022-08-25T19:54:44.240Z,9.03
2022-08-25T19:56:54.320Z,8.73
2022-08-25T19:58:57.559Z,9.87
2022-08-25T20:01:00.057Z,10.83
2022-08-25T20:03:03.255Z,10.63
2022-08-25T20:05:08.435Z,11.40
2022-08-25T20:07:12.363Z,9.20
2022-08-25T20:09:38.878Z,9.10
2022-08-25T20:11:46.375Z,10.03
2022-08-25T20:13:53.380Z,10.10
2022-08-25T20:15:57.666Z,9.70
2022-08-25T20:18:02.742Z,9.40
2022-08-25T20:20:09.273Z,10.17
2022-08-25T20:22:17.783Z,9.77
2022-08-25T20:24:39.511Z,9.60
2022-08-25T20:26:43.165Z,9.80
2022-08-25T20:28:45.352Z,9.60
2022-08-25T20:30:47.532Z,10.43
2022-08-25T20:32:50.802Z,9.30
2022-08-25T20:34:55.661Z,9.87
2022-08-25T20:36:57.944Z,9.53
2022-08-25T20:39:00.070Z,10.13
2022-08-25T20:41:02.157Z,9.67
2022-08-25T20:43:05.147Z,10.33
2022-08-25T20:45:15.086Z,9.50
2022-08-25T20:47:21.063Z,9.70
2022-08-25T20:49:26.762Z,10.17
2022-08-25T20:51:28.935Z,10.00
2022-08-25T20:53:31.062Z,9.60
2022-08-25T20:55:33.267Z,9.83
2022-08-25T20:57:44.372Z,11.33
2022-08-25T20:59:47.047Z,9.70
2022-08-25T21:01:49.640Z,9.10
2022-08-25T21:03:52.748Z,10.13
2022-08-25T21:05:54.905Z,9.53
2022-08-25T21:07:56.911Z,9.17
2022-08-25T21:09:58.975Z,10.00
2022-08-25T21:12:01.532Z,11.70
2022-08-25T21:14:05.966Z,10.73
2022-08-25T21:16:08.695Z,9.77
2022-08-25T21:18:11.873Z,10.13
2022-08-25T21:20:13.987Z,9.80
2022-08-25T21:22:16.212Z,9.30
2022-08-25T21:24:19.037Z,9.77
2022-08-25T21:26:26.192Z,11.57
2022-08-25T21:28:28.300Z,9.93
2022-08-25T21:30:30.433Z,10.10
2022-08-25T21:32:33.159Z,10.17
2022-08-25T21:34:35.377Z,9.27
2022-08-25T21:36:37.615Z,9.70
2022-08-25T21:38:39.941Z,10.23
2022-08-25T21:40:44.868Z,9.90
2022-08-25T21:42:47.221Z,11.10
2022-08-25T21:44:50.655Z,10.00
2022-08-25T21:46:53.962Z,11.60
2022-08-25T21:48:57.642Z,10.20
2022-08-25T21:51:11.630Z,10.80
2022-08-25T21:53:13.701Z,10.47
2022-08-25T21:55:16.669Z,10.90
2022-08-25T21:57:23.588Z,10.00
2022-08-25T21:59:28.890Z,10.47
2022-08-25T22:01:31.293Z,12.50
2022-08-25T22:03:34.255Z,9.80
2022-08-25T22:05:39.412Z,10.37
2022-08-25T22:07:44.100Z,10.40
2022-08-25T22:09:46.354Z,10.60
2022-08-25T22:11:50.876Z,11.00
2022-08-25T22:13:54.061Z,11.10
2022-08-25T22:15:56.336Z,11.23
2022-08-25T22:17:58.473Z,11.47
2022-08-25T22:20:00.783Z,10.20
2022-08-25T22:22:02.983Z,12.40
2022-08-25T22:24:05.620Z,11.73
2022-08-25T22:26:07.807Z,13.03
2022-08-25T22:28:09.935Z,11.90
2022-08-25T22:30:17.222Z,12.50
2022-08-25T22:32:19.441Z,11.97
2022-08-25T22:34:30.760Z,13.33
2022-08-25T22:36:36.332Z,11.40
2022-08-25T22:38:38.388Z,11.47
2022-08-25T22:40:41.223Z,13.80
2022-08-25T22:42:47.790Z,13.00
2022-08-25T22:44:50.363Z,13.80
2022-08-25T22:46:53.343Z,11.40
2022-08-25T22:48:56.105Z,12.87
2022-08-25T22:51:06.439Z,14.20
2022-08-25T22:53:09.364Z,14.00
2022-08-25T22:55:12.041Z,11.90
2022-08-25T22:57:14.193Z,12.73
2022-08-25T22:59:16.292Z,13.87
2022-08-25T23:01:19.848Z,13.63
2022-08-25T23:03:21.918Z,12.87
2022-08-25T23:05:23.990Z,13.80
2022-08-25T23:07:26.161Z,13.17
2022-08-25T23:09:28.175Z,12.27
2022-08-25T23:11:30.374Z,14.10
2022-08-25T23:13:34.551Z,12.97
2022-08-25T23:15:36.575Z,13.30
2022-08-25T23:17:38.827Z,13.23
2022-08-25T23:19:40.692Z,12.70
2022-08-25T23:22:02.144Z,12.27
2022-08-25T23:24:04.590Z,12.47
2022-08-25T23:26:07.089Z,12.43
2022-08-25T23:28:09.365Z,12.47
2022-08-25T23:30:12.797Z,13.57
2022-08-25T23:32:16.665Z,12.37
2022-08-25T23:34:18.653Z,12.97
2022-08-25T23:36:21.791Z,12.00
2022-08-25T23:38:24.007Z,13.57
2022-08-25T23:40:27.686Z,13.73
2022-08-25T23:42:29.648Z,14.37
2022-08-25T23:44:31.548Z,13.77
2022-08-25T23:46:35.194Z,13.40
2022-08-25T23:48:37.569Z,13.60
2022-08-25T23:50:48.049Z,13.20
2022-08-25T23:52:55.906Z,12.83
2022-08-25T23:54:58.030Z,13.00
2022-08-25T23:57:00.086Z,13.17
2022-08-25T23:59:04.163Z,13.63
